Time;durP1;ratioP1;P1;durP2;ratioP2;P2;SDS_P1;SDS_P2;PMS_P1;PMS_P2;Temp;Humidity;BMP_temperature;BMP_pressure;BME280_temperature;BME280_humidity;BME280_pressure;Samples;Min_cycle;Max_cycle;Signal;HPM_P1;HPM_P2
2022/06/16 00:00:00;;;;;;;5.57;5.07;;;15.90;99.90;16.80;97098.00;;;;5065035;28;20335;-66
2022/06/16 00:02:52;;;;;;;7.97;5.37;;;15.90;99.90;16.40;97090.00;;;;5058084;28;20208;-65
2022/06/16 00:05:44;;;;;;;6.00;5.50;;;15.80;99.90;16.50;97093.00;;;;5063924;28;20613;-65
2022/06/16 00:08:32;;;;;;;7.07;5.73;;;15.60;99.90;16.50;97091.00;;;;5066449;28;20210;-66
2022/06/16 00:11:21;;;;;;;6.57;5.97;;;15.60;99.90;16.60;97084.00;;;;5053152;28;20201;-66
2022/06/16 00:14:12;;;;;;;5.57;5.07;;;15.60;99.90;16.70;97095.00;;;;5061258;28;20594;-65
2022/06/16 00:17:01;;;;;;;6.93;5.20;;;;;16.90;97093.00;;;;5062908;28;20204;-65
2022/06/16 00:19:49;;;;;;;5.33;4.93;;;15.60;99.90;16.80;97090.00;;;;5060895;28;20231;-65
2022/06/16 00:22:39;;;;;;;5.83;5.27;;;15.60;99.90;16.70;97080.00;;;;5065797;28;20201;-66
2022/06/16 00:25:27;;;;;;;6.10;5.50;;;15.60;99.90;16.40;97084.00;;;;5057100;28;20226;-66
2022/06/16 00:28:16;;;;;;;11.67;5.63;;;15.50;99.90;15.90;97080.00;;;;5062213;28;20195;-66
2022/06/16 00:31:08;;;;;;;7.67;5.50;;;15.40;99.90;16.00;97085.00;;;;5054743;28;20201;-65
2022/06/16 00:33:57;;;;;;;7.27;6.40;;;15.30;99.90;16.40;97081.00;;;;5063726;28;20200;-65
2022/06/16 00:36:46;;;;;;;6.40;5.80;;;15.30;99.90;16.40;97087.00;;;;5059072;28;20216;-65
2022/06/16 00:39:35;;;;;;;7.43;6.43;;;15.20;99.90;16.10;97079.00;;;;5065603;28;20694;-66
2022/06/16 00:42:26;;;;;;;8.50;5.70;;;15.30;99.90;16.10;97072.00;;;;5062528;28;20215;-66
2022/06/16 00:45:53;;;;;;;8.43;6.10;;;15.20;99.90;15.90;97067.00;;;;5057970;28;20220;-66
2022/06/16 00:48:47;;;;;;;8.17;7.40;;;15.10;99.90;15.90;97067.00;;;;5062975;28;20196;-65
2022/06/16 00:51:39;;;;;;;7.97;6.57;;;15.00;99.90;16.10;97062.00;;;;5063133;28;20205;-65
2022/06/16 00:54:32;;;;;;;10.07;6.00;;;15.00;99.90;15.80;97063.00;;;;5065708;28;20587;-66
2022/06/16 00:57:26;;;;;;;7.30;6.57;;;15.00;99.90;15.50;97066.00;;;;5064316;28;20208;-66
2022/06/16 01:00:21;;;;;;;7.30;5.87;;;14.90;99.90;15.20;97066.00;;;;5062557;28;20228;-66
2022/06/16 01:03:10;;;;;;;9.03;5.97;;;14.80;99.90;15.60;97064.00;;;;5066269;28;20213;-66
2022/06/16 01:05:59;;;;;;;10.10;6.77;;;14.70;99.90;15.70;97068.00;;;;5057366;28;20608;-65
2022/06/16 01:08:52;;;;;;;8.70;6.80;;;14.70;99.90;15.40;97058.00;;;;5060769;28;20580;-66
2022/06/16 01:15:21;;;;;;;8.33;6.93;;;14.70;99.90;15.60;97052.00;;;;5053978;28;20243;-66
2022/06/16 01:18:21;;;;;;;10.80;7.27;;;14.70;99.90;15.90;97061.00;;;;5066012;28;20199;-66
2022/06/16 01:21:33;;;;;;;7.17;6.47;;;14.70;99.90;15.70;97056.00;;;;5058433;28;20211;-66
2022/06/16 01:24:54;;;;;;;7.47;6.70;;;14.70;99.90;15.20;97047.00;;;;5063309;28;20192;-66
2022/06/16 01:28:14;;;;;;;6.60;6.00;;;14.60;99.90;15.00;97045.00;;;;5061538;28;20216;-66
2022/06/16 01:31:11;;;;;;;8.03;6.37;;;14.50;99.90;15.10;97046.00;;;;5056372;28;20781;-66
2022/06/16 01:34:09;;;;;;;8.27;6.83;;;14.40;99.90;15.20;97051.00;;;;5053954;28;20212;-66
2022/06/16 01:37:08;;;;;;;8.70;6.70;;;14.40;99.90;15.50;97052.00;;;;5059906;28;20223;-66
2022/06/16 01:40:02;;;;;;;7.73;6.57;;;14.40;99.90;15.50;97049.00;;;;5059374;28;20715;-66
2022/06/16 01:42:58;;;;;;;7.13;6.47;;;14.40;99.90;15.50;97051.00;;;;5069583;28;20211;-66
2022/06/16 01:45:53;;;;;;;7.47;5.83;;;14.40;99.90;15.70;97050.00;;;;5065522;28;20224;-66
2022/06/16 01:48:49;;;;;;;7.97;7.17;;;14.40;99.90;15.50;97050.00;;;;5060746;28;20197;-66
2022/06/16 01:51:45;;;;;;;11.73;9.30;;;14.40;99.90;15.20;97040.00;;;;5054659;28;20200;-66
2022/06/16 01:54:38;;;;;;;7.17;6.50;;;14.40;99.90;15.30;97043.00;;;;5066443;28;20215;-66
2022/06/16 01:57:32;;;;;;;9.40;6.90;;;14.40;99.90;15.10;97041.00;;;;5066910;28;20215;-66
2022/06/16 02:00:24;;;;;;;8.43;7.50;;;14.20;99.90;15.10;97042.00;;;;5066044;28;20222;-66
2022/06/16 02:03:20;;;;;;;8.87;6.80;;;14.20;99.90;15.20;97040.00;;;;5064054;28;20200;-66
2022/06/16 02:06:17;;;;;;;7.27;6.30;;;14.20;99.90;15.10;97042.00;;;;5056880;28;20223;-66
2022/06/16 02:09:11;;;;;;;8.07;7.23;;;14.20;99.90;14.90;97035.00;;;;5059231;28;20251;-66
2022/06/16 02:12:04;;;;;;;7.83;6.83;;;14.10;99.90;14.60;97041.00;;;;5056510;28;20614;-66
2022/06/16 02:14:54;;;;;;;8.47;7.17;;;14.00;99.90;14.50;97034.00;;;;5052590;28;20211;-64
2022/06/16 02:17:43;;;;;;;8.80;7.90;;;13.90;99.90;14.80;97033.00;;;;5060606;28;20200;-66
2022/06/16 02:20:41;;;;;;;7.47;6.37;;;13.90;99.90;14.70;97035.00;;;;5067134;28;20207;-66
2022/06/16 02:23:31;;;;;;;7.30;6.60;;;13.90;99.90;14.50;97042.00;;;;5066460;28;20200;-66
2022/06/16 02:26:20;;;;;;;8.27;7.53;;;13.90;99.90;14.60;97030.00;;;;5056076;28;20616;-66
2022/06/16 02:29:29;;;;;;;8.03;7.03;;;13.90;99.90;14.90;97036.00;;;;5056781;28;20216;-66
2022/06/16 02:32:35;;;;;;;8.47;7.53;;;13.80;99.90;14.50;97035.00;;;;5061149;28;20189;-66
2022/06/16 02:35:37;;;;;;;8.27;7.47;;;13.60;99.90;14.70;97028.00;;;;5058874;28;20224;-66
2022/06/16 02:38:45;;;;;;;7.37;6.67;;;14.00;99.90;15.00;97038.00;;;;5065552;28;20203;-66
2022/06/16 02:41:46;;;;;;;9.97;6.27;;;13.60;99.90;15.10;97043.00;;;;5064219;28;20206;-66
2022/06/16 02:44:44;;;;;;;11.90;7.13;;;13.90;99.90;14.80;97040.00;;;;5058263;28;20655;-66
2022/06/16 02:47:50;;;;;;;9.67;6.63;;;13.80;99.90;14.80;97036.00;;;;5065315;28;20269;-66
2022/06/16 02:50:48;;;;;;;7.27;6.63;;;13.80;99.90;14.50;97043.00;;;;5060982;28;20219;-66
2022/06/16 02:53:46;;;;;;;7.93;7.07;;;13.70;99.90;14.70;97046.00;;;;5060793;28;20212;-66
2022/06/16 02:56:40;;;;;;;7.90;7.17;;;13.70;99.90;14.40;97044.00;;;;5053710;28;20212;-66
2022/06/16 02:59:37;;;;;;;9.20;7.07;;;13.70;99.90;14.30;97043.00;;;;5051206;28;20197;-66
2022/06/16 03:02:28;;;;;;;9.40;7.73;;;13.60;99.90;14.60;97048.00;;;;5067650;28;20218;-66
2022/06/16 03:05:17;;;;;;;12.37;8.37;;;13.60;99.90;14.70;97038.00;;;;5064771;28;20691;-66
2022/06/16 03:08:06;;;;;;;7.10;6.40;;;13.60;99.90;14.80;97038.00;;;;5058557;28;20189;-66
2022/06/16 03:10:58;;;;;;;10.20;6.97;;;13.70;99.90;14.90;97046.00;;;;5059316;28;20216;-66
2022/06/16 03:13:47;;;;;;;8.60;7.13;;;13.70;99.90;14.70;97037.00;;;;5053052;28;20194;-66
2022/06/16 03:16:38;;;;;;;9.37;7.43;;;13.70;99.90;14.30;97028.00;;;;5052572;28;20216;-66
2022/06/16 03:19:27;;;;;;;8.23;7.47;;;13.60;99.90;14.30;97027.00;;;;5056203;28;20232;-66
2022/06/16 03:22:18;;;;;;;10.20;7.50;;;13.50;99.90;14.00;97023.00;;;;5058004;28;20218;-66
2022/06/16 03:25:09;;;;;;;8.93;7.97;;;13.50;99.90;14.10;97020.00;;;;5065873;28;20224;-66
2022/06/16 03:27:59;;;;;;;9.50;8.13;;;13.40;99.90;14.10;97024.00;;;;5063771;28;20200;-66
2022/06/16 03:30:48;;;;;;;9.00;8.10;;;13.40;99.90;14.30;97033.00;;;;5052675;28;20239;-65
2022/06/16 03:33:37;;;;;;;10.17;6.87;;;13.40;99.90;13.90;97031.00;;;;5052969;28;20239;-66
2022/06/16 03:36:26;;;;;;;10.63;8.03;;;13.30;99.90;14.30;97037.00;;;;5064699;28;20250;-65
2022/06/16 03:39:15;;;;;;;8.40;7.60;;;13.30;99.90;14.30;97036.00;;;;5064409;28;20189;-66
2022/06/16 03:42:06;;;;;;;9.93;8.30;;;13.30;99.90;14.60;97033.00;;;;5058410;28;20683;-66
2022/06/16 03:44:56;;;;;;;11.47;8.57;;;13.30;99.90;14.70;97031.00;;;;5060012;28;22003;-66
2022/06/16 03:47:45;;;;;;;8.87;7.03;;;13.40;99.90;15.00;97042.00;;;;5055873;28;20197;-66
2022/06/16 03:50:34;;;;;;;8.53;7.63;;;13.50;99.90;15.10;97031.00;;;;5062955;28;20220;-66
2022/06/16 03:53:23;;;;;;;8.77;7.97;;;13.60;99.90;15.10;97032.00;;;;5057340;28;20199;-66
2022/06/16 03:56:13;;;;;;;8.17;7.33;;;13.70;99.90;14.80;97023.00;;;;5053554;28;20228;-66
2022/06/16 03:59:02;;;;;;;8.43;7.60;;;13.70;99.90;14.40;97026.00;;;;5060121;28;20227;-66
2022/06/16 04:01:52;;;;;;;7.47;6.70;;;13.70;99.90;14.60;97023.00;;;;5055716;28;20200;-66
2022/06/16 04:04:45;;;;;;;8.17;7.43;;;13.60;99.90;14.80;97016.00;;;;5067102;28;20211;-66
2022/06/16 04:07:33;;;;;;;8.23;7.47;;;13.60;99.90;14.90;97025.00;;;;5069055;28;20222;-66
2022/06/16 04:10:22;;;;;;;8.67;7.77;;;13.70;99.90;14.80;97023.00;;;;5068324;28;20235;-66
2022/06/16 04:13:11;;;;;;;9.83;8.27;;;13.70;99.90;14.80;97019.00;;;;5064669;28;20200;-66
2022/06/16 04:16:00;;;;;;;8.93;8.03;;;13.80;99.90;14.70;97021.00;;;;5065173;28;20224;-65
2022/06/16 04:18:50;;;;;;;8.40;7.67;;;13.80;99.90;14.50;97026.00;;;;5057415;28;20249;-66
2022/06/16 04:21:42;;;;;;;7.57;6.90;;;13.80;99.90;14.90;97025.00;;;;5067116;28;20196;-66
2022/06/16 04:24:33;;;;;;;11.00;7.87;;;13.80;99.90;15.00;97019.00;;;;5067489;28;20670;-66
2022/06/16 04:27:22;;;;;;;9.80;8.13;;;13.90;99.90;15.10;97010.00;;;;5062327;28;20261;-66
2022/06/16 04:30:11;;;;;;;8.60;6.90;;;14.00;99.90;15.10;97002.00;;;;5060873;28;20230;-66
2022/06/16 04:33:00;;;;;;;9.10;8.20;;;14.00;99.90;15.20;97009.00;;;;5069892;28;20207;-66
2022/06/16 04:35:51;;;;;;;8.57;7.80;;;14.10;99.90;15.40;97008.00;;;;5064087;28;20227;-66
2022/06/16 04:38:40;;;;;;;7.23;6.63;;;14.20;99.90;15.60;97006.00;;;;5071375;28;20208;-66
2022/06/16 04:41:29;;;;;;;8.80;7.17;;;14.30;99.90;15.70;97007.00;;;;5071252;28;20200;-66
2022/06/16 04:44:18;;;;;;;8.57;7.77;;;14.40;99.90;15.90;96996.00;;;;5062268;28;20214;-66
2022/06/16 04:47:07;;;;;;;8.57;7.63;;;14.50;99.90;15.90;96985.00;;;;5072751;28;20291;-66
2022/06/16 04:49:56;;;;;;;9.00;7.37;;;14.60;99.90;16.00;96996.00;;;;5071572;28;20216;-66
2022/06/16 04:52:46;;;;;;;8.10;7.37;;;;;16.10;97001.00;;;;5071949;28;20204;-66
2022/06/16 04:55:35;;;;;;;7.20;6.60;;;14.80;99.90;16.10;96997.00;;;;5070505;28;20219;-66
2022/06/16 04:58:25;;;;;;;7.93;7.00;;;14.90;99.90;16.40;97002.00;;;;5071354;28;20580;-66
2022/06/16 05:01:14;;;;;;;8.50;6.93;;;15.10;99.90;16.60;96997.00;;;;5067182;28;20580;-67
2022/06/16 05:04:11;;;;;;;8.50;7.60;;;15.20;99.90;16.70;96999.00;;;;5063050;28;20698;-66
2022/06/16 05:07:01;;;;;;;8.33;7.60;;;15.30;99.90;17.10;96989.00;;;;5071743;28;20228;-66
2022/06/16 05:09:51;;;;;;;8.43;7.13;;;;;17.20;96990.00;;;;5070734;28;20211;-66
2022/06/16 05:12:40;;;;;;;8.03;7.30;;;15.60;99.90;17.10;96987.00;;;;5070785;28;20207;-66
2022/06/16 05:15:29;;;;;;;8.40;7.60;;;15.70;99.90;17.20;97002.00;;;;5071530;28;20220;-66
2022/06/16 05:18:18;;;;;;;9.87;8.17;;;15.80;99.90;17.20;96988.00;;;;5061156;28;20208;-66
2022/06/16 05:21:09;;;;;;;9.60;7.30;;;16.00;99.90;17.30;96984.00;;;;5062973;28;20687;-66
2022/06/16 05:23:58;;;;;;;8.53;7.70;;;16.00;99.90;17.50;96981.00;;;;5059476;28;20224;-66
2022/06/16 05:26:48;;;;;;;8.97;7.77;;;16.20;99.90;17.50;96983.00;;;;5095084;23;20251;-69
2022/06/16 05:29:37;;;;;;;7.30;6.63;;;16.30;99.90;17.70;96985.00;;;;5073403;28;20226;-69
2022/06/16 05:32:26;;;;;;;9.57;7.57;;;16.40;99.90;17.80;96984.00;;;;5073547;28;20223;-68
2022/06/16 05:35:15;;;;;;;8.53;7.73;;;16.50;99.90;18.10;96989.00;;;;5071131;28;20204;-69
2022/06/16 05:38:05;;;;;;;9.57;8.13;;;16.60;99.90;18.20;96998.00;;;;5070907;28;20204;-69
2022/06/16 05:40:58;;;;;;;8.67;7.87;;;16.70;99.90;18.50;96986.00;;;;5069239;28;20482;-69
2022/06/16 05:43:48;;;;;;;10.97;8.30;;;16.90;99.90;18.80;96984.00;;;;5079132;28;20192;-69
2022/06/16 05:46:37;;;;;;;8.23;7.53;;;17.10;99.90;18.80;96988.00;;;;5070524;28;20234;-69
2022/06/16 05:49:26;;;;;;;9.13;7.20;;;17.20;99.90;18.80;96989.00;;;;5068500;28;20208;-69
2022/06/16 05:52:18;;;;;;;9.30;8.27;;;17.30;99.90;19.40;96980.00;;;;5070227;28;20227;-69
2022/06/16 05:55:10;;;;;;;8.70;8.00;;;17.50;99.90;19.20;96976.00;;;;5085285;28;20705;-69
2022/06/16 05:57:59;;;;;;;11.33;7.43;;;17.60;99.90;19.70;96981.00;;;;5078246;28;20223;-69
2022/06/16 06:00:49;;;;;;;8.23;7.30;;;17.80;99.90;20.00;96977.00;;;;5081461;28;20591;-69
2022/06/16 06:03:38;;;;;;;9.07;8.13;;;18.00;99.90;20.30;96980.00;;;;5079555;28;20199;-69
2022/06/16 06:06:27;;;;;;;11.63;8.77;;;18.20;99.90;20.30;96988.00;;;;5084368;28;20227;-69
2022/06/16 06:18:42;;;;;;;9.87;7.87;;;19.10;99.90;21.30;96993.00;;;;5083845;28;20196;-69
2022/06/16 06:24:39;;;;;;;13.13;7.73;;;19.40;99.90;21.50;96981.00;;;;5073084;28;20199;-70
2022/06/16 06:27:33;;;;;;;8.13;7.30;;;19.60;99.90;21.60;96992.00;;;;5069231;28;20215;-69
2022/06/16 06:30:28;;;;;;;9.37;7.20;;;19.80;99.90;21.90;96987.00;;;;5068995;28;20273;-69
2022/06/16 06:33:18;;;;;;;10.10;7.40;;;19.90;99.90;22.00;96983.00;;;;5068854;28;20279;-69
2022/06/16 06:36:08;;;;;;;7.70;6.43;;;20.10;99.90;22.20;96982.00;;;;5084972;28;20231;-70
2022/06/16 06:38:57;;;;;;;12.00;6.83;;;20.20;99.90;22.40;96989.00;;;;5067974;28;20208;-69
2022/06/16 06:41:46;;;;;;;8.80;7.60;;;20.40;99.90;22.30;96985.00;;;;5077949;28;20210;-69
2022/06/16 06:44:36;;;;;;;9.07;6.80;;;20.50;99.90;22.60;96989.00;;;;5070048;28;20203;-70
2022/06/16 06:47:27;;;;;;;11.10;7.83;;;20.70;99.90;22.80;96984.00;;;;5077355;28;20725;-70
2022/06/16 06:50:23;;;;;;;10.50;8.00;;;20.90;99.90;23.10;96981.00;;;;5074169;28;20861;-69
2022/06/16 06:53:14;;;;;;;8.13;7.10;;;21.00;99.90;23.20;96992.00;;;;5062248;28;20203;-69
2022/06/16 06:56:04;;;;;;;12.27;7.10;;;21.20;99.90;23.40;96981.00;;;;5070863;28;20219;-69
2022/06/16 06:58:53;;;;;;;9.50;7.17;;;21.30;99.90;23.60;96992.00;;;;5067534;28;20195;-69
2022/06/16 07:01:42;;;;;;;7.33;6.63;;;21.50;99.90;23.80;96989.00;;;;5082654;28;20227;-69
2022/06/16 07:04:31;;;;;;;10.00;6.70;;;21.70;99.90;23.90;96998.00;;;;5077869;28;20211;-69
2022/06/16 07:07:23;;;;;;;8.97;6.13;;;21.80;99.90;24.10;96989.00;;;;5077910;28;20221;-69
2022/06/16 07:10:14;;;;;;;8.30;6.60;;;22.00;99.90;24.10;96984.00;;;;5072596;28;20208;-69
2022/06/16 07:13:03;;;;;;;8.57;6.73;;;22.20;99.90;24.20;96980.00;;;;5072765;28;20202;-69
2022/06/16 07:15:53;;;;;;;7.70;6.40;;;22.30;99.90;24.40;96981.00;;;;5073817;28;20228;-69
2022/06/16 07:18:41;;;;;;;8.63;6.20;;;22.40;99.90;24.60;96981.00;;;;5074798;28;20218;-69
2022/06/16 07:21:31;;;;;;;6.87;6.17;;;22.50;99.90;24.90;96973.00;;;;5076423;28;20223;-68
2022/06/16 07:24:19;;;;;;;11.00;5.70;;;22.70;99.90;25.10;96971.00;;;;5072961;28;20196;-68
2022/06/16 07:27:11;;;;;;;10.30;6.37;;;22.90;99.90;25.20;96969.00;;;;5073871;28;20222;-68
2022/06/16 07:30:00;;;;;;;9.60;6.23;;;23.10;99.90;25.50;96964.00;;;;5075335;28;20195;-69
2022/06/16 07:32:49;;;;;;;7.13;5.73;;;23.60;99.90;25.40;96960.00;;;;5074249;28;20597;-69
2022/06/16 07:35:40;;;;;;;7.50;6.40;;;23.40;99.90;25.60;96962.00;;;;5082099;28;20207;-68
2022/06/16 07:38:29;;;;;;;9.83;6.87;;;23.50;99.90;25.80;96956.00;;;;5085995;28;20211;-68
2022/06/16 07:44:25;;;;;;;6.77;6.07;;;23.70;99.90;26.00;96959.00;;;;5077418;28;20203;-68
2022/06/16 07:47:14;;;;;;;6.47;5.57;;;23.90;99.90;25.20;96961.00;;;;5070450;28;20224;-67
2022/06/16 07:50:04;;;;;;;7.97;6.00;;;23.90;99.90;25.80;96961.00;;;;5079276;28;20581;-68
2022/06/16 07:52:53;;;;;;;6.23;5.30;;;23.90;99.90;25.80;96959.00;;;;5070549;28;20204;-68
2022/06/16 07:55:42;;;;;;;7.70;5.20;;;24.00;99.90;26.30;96963.00;;;;5078067;28;20243;-68
2022/06/16 07:58:32;;;;;;;5.77;5.23;;;24.10;99.90;26.70;96963.00;;;;5087838;28;20230;-68
2022/06/16 08:01:22;;;;;;;8.23;5.50;;;24.30;99.90;26.90;96957.00;;;;5084547;28;20200;-67
2022/06/16 08:04:12;;;;;;;5.03;4.53;;;24.40;99.90;27.20;96955.00;;;;5079873;28;20269;-68
2022/06/16 08:07:01;;;;;;;6.13;4.97;;;24.70;99.90;27.30;96956.00;;;;5077750;28;20224;-67
2022/06/16 08:09:50;;;;;;;6.60;5.63;;;24.90;99.90;27.00;96955.00;;;;5078014;28;20209;-68
2022/06/16 08:12:39;;;;;;;6.83;5.27;;;25.10;99.90;26.90;96959.00;;;;5077052;28;20215;-68
2022/06/16 08:15:28;;;;;;;5.87;5.23;;;25.10;99.90;27.30;96957.00;;;;5076655;28;20303;-68
2022/06/16 08:18:21;;;;;;;5.90;5.10;;;25.20;99.90;27.60;96947.00;;;;5080336;28;20667;-69
2022/06/16 08:21:10;;;;;;;10.07;4.70;;;25.40;99.90;28.00;96953.00;;;;5076021;28;20580;-68
2022/06/16 08:23:59;;;;;;;7.30;5.90;;;25.50;99.90;28.00;96949.00;;;;5076890;28;20248;-68
2022/06/16 08:26:48;;;;;;;9.43;6.00;;;25.70;99.90;28.10;96945.00;;;;5075346;28;20244;-69
2022/06/16 08:29:38;;;;;;;9.17;5.87;;;25.40;99.90;28.20;96950.00;;;;5074538;28;20212;-68
2022/06/16 08:32:28;;;;;;;14.87;5.70;;;25.90;99.90;28.20;96947.00;;;;5080262;28;20618;-69
2022/06/16 08:35:18;;;;;;;7.50;5.27;;;26.00;99.90;28.00;96959.00;;;;5074720;28;20689;-68
2022/06/16 08:38:07;;;;;;;8.43;5.37;;;26.00;99.90;28.20;96941.00;;;;5079640;28;20211;-68
2022/06/16 08:41:12;;;;;;;5.97;5.37;;;26.10;99.90;28.00;96947.00;;;;5076295;28;20198;-69
2022/06/16 08:44:12;;;;;;;6.57;5.07;;;26.20;99.90;28.40;96943.00;;;;5080799;28;20218;-68
2022/06/16 08:47:06;;;;;;;8.53;5.43;;;26.30;99.90;27.80;96943.00;;;;5069438;28;20236;-69
2022/06/16 08:50:07;;;;;;;6.27;4.70;;;26.20;99.90;28.00;96937.00;;;;5070740;28;20204;-70
2022/06/16 08:53:21;;;;;;;6.60;5.53;;;26.10;99.90;28.50;96944.00;;;;5069642;28;20215;-69
2022/06/16 08:56:13;;;;;;;6.63;5.07;;;26.20;99.90;28.60;96933.00;;;;5074619;28;20307;-69
2022/06/16 08:59:10;;;;;;;9.40;6.03;;;26.30;99.90;28.80;96931.00;;;;5079144;28;20217;-69
2022/06/16 09:02:06;;;;;;;7.40;4.90;;;26.60;99.90;29.30;96939.00;;;;5073054;28;20206;-70
2022/06/16 09:05:05;;;;;;;7.50;5.60;;;26.80;99.90;29.40;96942.00;;;;5069421;28;20766;-69
2022/06/16 09:08:06;;;;;;;11.13;5.60;;;27.00;99.90;29.50;96931.00;;;;5073964;28;20232;-69
2022/06/16 09:11:07;;;;;;;9.27;6.10;;;27.20;99.90;29.80;96927.00;;;;5070427;28;20776;-70
2022/06/16 09:18:02;;;;;;;11.00;5.93;;;27.50;99.90;29.10;96917.00;;;;5069687;28;20568;-69
2022/06/16 09:21:08;;;;;;;7.17;6.10;;;27.50;99.40;30.20;96921.00;;;;5071173;28;20284;-70
2022/06/16 09:24:24;;;;;;;8.77;6.10;;;27.60;99.90;30.00;96919.00;;;;5066649;28;20222;-70
2022/06/16 09:27:20;;;;;;;7.97;5.93;;;27.80;99.90;30.50;96916.00;;;;5065577;28;20246;-70
2022/06/16 09:30:16;;;;;;;14.03;6.10;;;28.00;99.70;29.70;96898.00;;;;5065940;28;20893;-71
2022/06/16 09:33:11;;;;;;;6.20;5.60;;;28.10;97.00;30.10;96892.00;;;;5065297;28;20613;-70
2022/06/16 09:36:04;;;;;;;7.73;5.83;;;28.20;97.60;30.20;96894.00;;;;5067251;28;20233;-70
2022/06/16 09:39:00;;;;;;;8.70;5.70;;;28.20;98.30;29.00;96886.00;;;;5065328;28;20696;-70
2022/06/16 09:45:17;;;;;;;5.77;5.27;;;28.20;98.50;30.80;96883.00;;;;5077347;28;20211;-68
2022/06/16 09:48:11;;;;;;;7.80;5.83;;;28.40;98.00;31.10;96881.00;;;;5065587;28;20211;-69
2022/06/16 09:51:07;;;;;;;7.97;5.63;;;28.70;97.70;29.30;96873.00;;;;5071426;28;20225;-68
2022/06/16 09:54:02;;;;;;;7.30;4.93;;;28.60;94.90;30.80;96871.00;;;;5073382;28;20203;-69
2022/06/16 09:56:57;;;;;;;6.70;5.27;;;28.60;96.40;30.70;96867.00;;;;5073215;28;20240;-69
2022/06/16 09:59:53;;;;;;;6.20;5.50;;;28.80;95.10;30.40;96861.00;;;;5072687;28;20244;-69
2022/06/16 10:02:47;;;;;;;10.43;5.97;;;28.90;94.30;31.60;96854.00;;;;5071078;28;20201;-69
2022/06/16 10:05:43;;;;;;;8.60;6.00;;;29.00;95.20;31.30;96875.00;;;;5070999;28;20236;-70
2022/06/16 10:08:43;;;;;;;5.87;5.37;;;29.30;93.70;30.50;96864.00;;;;5073156;28;20210;-69
2022/06/16 10:11:48;;;;;;;7.67;6.97;;;29.20;92.80;31.50;96872.00;;;;5066676;28;20585;-70
2022/06/16 10:14:48;;;;;;;7.20;4.97;;;29.30;93.60;31.10;96864.00;;;;5067643;28;20207;-69
2022/06/16 10:17:40;;;;;;;5.70;5.13;;;29.40;90.50;30.70;96854.00;;;;5067444;28;20207;-67
2022/06/16 10:20:31;;;;;;;5.07;4.57;;;29.40;87.90;29.90;96848.00;;;;5068667;28;20204;-70
2022/06/16 10:23:25;;;;;;;6.10;4.20;;;29.10;90.30;31.10;96861.00;;;;5072711;28;20237;-70
2022/06/16 10:26:14;;;;;;;5.93;5.33;;;29.00;90.70;31.50;96850.00;;;;5068607;28;20314;-69
2022/06/16 10:29:14;;;;;;;5.73;4.90;;;29.20;89.50;31.90;96842.00;;;;5073565;28;20210;-68
2022/06/16 10:32:16;;;;;;;5.87;5.30;;;29.30;90.40;30.60;96829.00;;;;5072405;28;20209;-68
2022/06/16 10:35:08;;;;;;;5.07;4.57;;;29.50;88.50;28.20;96813.00;;;;5068755;28;20337;-67
2022/06/16 10:37:57;;;;;;;5.63;5.03;;;29.00;85.00;29.20;96824.00;;;;5067145;28;20622;-68
2022/06/16 10:40:46;;;;;;;4.63;4.23;;;28.60;88.50;29.10;96835.00;;;;5070608;28;20579;-68
2022/06/16 10:43:57;;;;;;;7.53;4.83;;;28.30;87.80;31.00;96889.00;;;;5072948;28;20229;-69
2022/06/16 10:46:50;;;;;;;5.20;4.73;;;28.60;89.50;30.10;96874.00;;;;5073596;28;20226;-70
2022/06/16 10:49:45;;;;;;;4.40;4.00;;;28.40;88.80;29.10;96876.00;;;;5067908;28;20220;-69
2022/06/16 10:52:37;;;;;;;5.50;4.43;;;28.20;89.40;28.90;96868.00;;;;5068574;28;20212;-69
2022/06/16 10:55:29;;;;;;;4.80;4.33;;;27.80;88.80;27.60;96866.00;;;;5065737;28;20285;-67
2022/06/16 10:58:23;;;;;;;6.87;4.13;;;27.30;89.80;27.10;96881.00;;;;5067387;28;20198;-70
2022/06/16 11:01:18;;;;;;;4.53;4.23;;;26.80;90.60;27.70;96894.00;;;;5073366;28;20209;-69
2022/06/16 11:04:11;;;;;;;4.97;4.43;;;26.40;90.80;27.30;96883.00;;;;5076735;28;20226;-69
2022/06/16 11:07:03;;;;;;;7.43;5.13;;;26.10;90.90;27.40;96936.00;;;;5066395;28;20710;-69
2022/06/16 11:10:02;;;;;;;4.30;3.90;;;25.90;92.00;26.80;96984.00;;;;5065611;28;20206;-69
2022/06/16 11:12:50;;;;;;;7.38;5.38;;;25.70;92.90;26.40;97033.00;;;;5069535;28;20522;-70
2022/06/16 11:15:42;;;;;;;8.37;5.20;;;25.40;95.80;25.50;97087.00;;;;5070602;28;20234;-72
2022/06/16 11:18:31;;;;;;;11.05;7.38;;;25.10;99.90;24.10;97027.00;;;;5066065;28;20797;-73
2022/06/16 11:21:26;;;;;;;10.83;5.73;;;24.60;99.90;23.30;96950.00;;;;5065813;28;20696;-70
2022/06/16 11:24:30;;;;;;;4.20;3.80;;;23.80;99.90;21.90;96966.00;;;;5068084;28;20232;-67
2022/06/16 11:27:18;;;;;;;4.03;3.60;;;23.10;99.90;21.70;97017.00;;;;5084249;22;20722;-68
2022/06/16 11:30:36;;;;;;;3.83;3.53;;;22.20;99.90;22.50;97033.00;;;;5056309;28;20575;-67
2022/06/16 11:37:26;;;;;;;8.70;4.33;;;21.50;99.90;22.50;97033.00;;;;5055481;28;20230;-67
2022/06/16 11:40:37;;;;;;;8.47;4.70;;;21.30;99.90;22.60;97028.00;;;;5052260;28;20208;-68
2022/06/16 11:43:53;;;;;;;6.73;4.63;;;21.30;99.90;23.10;97001.00;;;;5055470;28;20192;-68
2022/06/16 11:46:50;;;;;;;5.13;4.00;;;21.30;99.90;23.40;97017.00;;;;5059307;28;20215;-69
2022/06/16 11:49:46;;;;;;;8.67;4.43;;;21.40;99.90;23.40;97008.00;;;;5056745;28;20581;-69
2022/06/16 11:52:49;;;;;;;4.77;4.37;;;21.60;99.90;22.40;96990.00;;;;5069096;28;20203;-69
2022/06/16 11:55:44;;;;;;;5.90;5.23;;;21.60;99.90;23.10;96982.00;;;;5064213;28;20223;-68
2022/06/16 11:58:50;;;;;;;6.50;5.90;;;21.70;99.90;23.00;96970.00;;;;5064206;28;20204;-68
2022/06/16 12:01:46;;;;;;;7.20;5.07;;;21.80;99.90;23.60;96964.00;;;;5064519;28;20215;-69
2022/06/16 12:04:55;;;;;;;6.43;5.23;;;22.10;99.90;24.50;96963.00;;;;5061126;28;20232;-69
2022/06/16 12:08:07;;;;;;;5.97;5.03;;;22.30;99.90;24.70;96963.00;;;;5066009;28;20789;-69
2022/06/16 12:11:04;;;;;;;5.80;5.20;;;22.50;99.90;24.60;96980.00;;;;5064417;28;20200;-69
2022/06/16 12:14:04;;;;;;;6.67;5.27;;;22.70;99.90;24.00;96971.00;;;;5070426;28;20273;-70
2022/06/16 12:17:01;;;;;;;6.93;4.80;;;22.70;99.90;24.10;96981.00;;;;5073711;28;20220;-69
2022/06/16 12:20:00;;;;;;;8.63;6.07;;;22.60;99.90;24.00;96983.00;;;;5075469;28;20238;-69
2022/06/16 12:23:11;;;;;;;10.23;5.83;;;22.50;99.90;23.40;96981.00;;;;5075533;28;20203;-69
2022/06/16 12:26:10;;;;;;;7.17;6.47;;;22.40;99.90;23.50;96992.00;;;;5073634;28;20614;-68
2022/06/16 12:29:10;;;;;;;7.07;6.47;;;22.30;99.90;23.70;97001.00;;;;5068608;28;20967;-68
2022/06/16 12:32:13;;;;;;;7.53;5.70;;;22.20;99.90;23.90;97002.00;;;;5069213;28;20204;-70
2022/06/16 12:35:20;;;;;;;6.90;6.30;;;22.20;99.90;23.60;97015.00;;;;5062897;28;20196;-68
2022/06/16 12:38:15;;;;;;;5.97;5.40;;;22.10;99.90;23.50;97020.00;;;;5060825;28;20208;-70
2022/06/16 12:41:10;;;;;;;6.43;5.83;;;22.10;99.90;23.40;97032.00;;;;5057892;28;20207;-70
2022/06/16 12:44:06;;;;;;;7.50;6.40;;;22.00;99.90;23.10;97036.00;;;;5060408;28;20221;-71
2022/06/16 12:47:09;;;;;;;7.37;6.03;;;21.90;99.90;23.00;97046.00;;;;5068416;28;20242;-69
2022/06/16 12:50:03;;;;;;;7.93;6.30;;;21.70;99.90;23.00;97064.00;;;;5077593;28;20204;-69
2022/06/16 12:52:59;;;;;;;7.37;6.67;;;21.60;99.90;22.70;97081.00;;;;5070318;28;20204;-69
2022/06/16 12:55:53;;;;;;;7.20;6.50;;;21.50;99.90;22.10;97070.00;;;;5066637;28;20214;-68
2022/06/16 12:58:50;;;;;;;10.33;6.43;;;21.30;99.90;21.80;97022.00;;;;5062530;28;20211;-68
2022/06/16 13:01:40;;;;;;;6.73;6.03;;;21.20;99.90;22.70;96980.00;;;;5060731;28;20196;-68
2022/06/16 13:04:32;;;;;;;6.63;5.83;;;21.20;99.90;23.20;96981.00;;;;5079915;28;20713;-70
2022/06/16 13:07:26;;;;;;;7.37;6.67;;;21.30;99.90;24.40;96986.00;;;;5073896;28;20223;-69
2022/06/16 13:10:19;;;;;;;7.23;6.63;;;21.70;99.90;25.60;96924.00;;;;5073743;28;20291;-71
2022/06/16 13:13:09;;;;;;;6.47;5.90;;;22.40;99.90;27.00;96907.00;;;;5074577;28;20192;-70
2022/06/16 13:16:03;;;;;;;7.40;5.30;;;23.30;99.90;28.90;96905.00;;;;5078821;28;20227;-70
2022/06/16 13:18:58;;;;;;;6.00;5.40;;;24.40;99.90;30.10;96898.00;;;;5063207;28;20197;-71
2022/06/16 13:21:53;;;;;;;5.63;4.93;;;25.50;99.90;30.70;96895.00;;;;5058671;28;20214;-70